Time;durP1;ratioP1;P1;durP2;ratioP2;P2;SDS_P1;SDS_P2;PMS_P1;PMS_P2;Temp;Humidity;BMP_temperature;BMP_pressure;BME280_temperature;BME280_humidity;BME280_pressure;Samples;Min_cycle;Max_cycle;Signal;HPM_P1;HPM_P2
2023/01/16 00:01:12;;;;;;;3.33;2.00;;;;;;;-140.72;100.00;53267.53;6270576;22;20006;-68
2023/01/16 00:03:37;;;;;;;6.38;1.58;;;;;;;-140.72;100.00;53283.78;6271440;22;20070;-68
2023/01/16 00:06:03;;;;;;;2.03;1.70;;;;;;;-140.72;100.00;53263.47;6271326;22;20096;-68
2023/01/16 00:08:31;;;;;;;4.80;1.90;;;;;;;-140.72;100.00;53210.72;6272026;22;20387;-68
2023/01/16 00:10:56;;;;;;;2.42;1.58;;;;;;;-140.72;100.00;53275.66;6272486;22;20046;-68
2023/01/16 00:13:22;;;;;;;4.88;1.48;;;;;;;-140.72;100.00;53233.03;6270769;22;20000;-68
2023/01/16 00:15:49;;;;;;;4.45;1.75;;;;;;;-140.72;100.00;53255.34;6269995;22;20334;-68
2023/01/16 00:18:15;;;;;;;1.83;1.02;;;;;;;-140.72;100.00;53263.47;6271504;22;20004;-68
2023/01/16 00:20:40;;;;;;;1.70;1.20;;;;;;;-140.72;100.00;53255.34;6271541;22;20006;-68
2023/01/16 00:23:06;;;;;;;1.63;1.08;;;;;;;-140.72;100.00;53271.59;6272359;22;20004;-68
2023/01/16 00:25:31;;;;;;;3.10;1.40;;;;;;;-140.72;100.00;53200.56;6270822;22;20325;-67
2023/01/16 00:28:00;;;;;;;5.35;1.13;;;;;;;-140.72;100.00;53275.66;6271688;22;20386;-68
2023/01/16 00:30:25;;;;;;;1.80;1.40;;;;;;;-140.72;100.00;53222.88;6269997;22;20008;-67
2023/01/16 00:32:51;;;;;;;1.95;1.23;;;;;;;-140.72;100.00;53261.44;6271363;22;20014;-67
2023/01/16 00:35:19;;;;;;;2.42;1.20;;;;;;;-140.72;100.00;53253.31;6271577;22;20360;-67
2023/01/16 00:37:44;;;;;;;5.95;1.83;;;;;;;-140.72;100.00;53249.28;6270762;22;20008;-67
2023/01/16 00:40:10;;;;;;;3.83;1.50;;;;;;;-140.72;100.00;53249.28;6271879;22;19999;-67
2023/01/16 00:42:35;;;;;;;5.82;2.08;;;;;;;-140.72;100.00;53239.13;6272552;22;19996;-67
2023/01/16 00:45:01;;;;;;;6.63;2.53;;;;;;;-140.72;100.00;53251.31;6272666;22;20008;-66
2023/01/16 00:47:26;;;;;;;5.32;2.78;;;;;;;-140.72;100.00;53226.94;6272880;22;20023;-67
2023/01/16 00:49:52;;;;;;;9.30;3.00;;;;;;;-140.72;100.00;53245.22;6273743;22;20027;-67
2023/01/16 00:52:17;;;;;;;3.17;2.30;;;;;;;-140.72;100.00;53237.09;6273627;22;20306;-67
2023/01/16 00:54:43;;;;;;;7.35;2.38;;;;;;;-140.72;100.00;53273.63;6272683;22;20081;-66
2023/01/16 00:57:08;;;;;;;5.25;2.80;;;;;;;-140.72;100.00;53224.91;6273045;22;20007;-67
2023/01/16 00:59:34;;;;;;;8.40;3.22;;;;;;;-140.72;100.00;53235.06;6273719;22;20008;-67
2023/01/16 01:01:59;;;;;;;3.92;2.63;;;;;;;-140.72;100.00;53293.91;6273312;22;20000;-67
2023/01/16 01:04:24;;;;;;;4.32;2.85;;;;;;;-140.72;100.00;53269.56;6273903;22;20106;-67
2023/01/16 01:06:50;;;;;;;4.32;2.55;;;;;;;-140.72;100.00;53247.25;6273890;22;20000;-67
2023/01/16 01:09:15;;;;;;;4.28;2.50;;;;;;;-140.72;100.00;53300.00;6273033;22;20003;-67
2023/01/16 01:11:41;;;;;;;3.58;2.42;;;;;;;-140.72;100.00;53257.38;6273198;22;20315;-67
2023/01/16 01:14:06;;;;;;;4.00;2.35;;;;;;;-140.72;100.00;53271.59;6273650;22;20053;-67
2023/01/16 01:16:32;;;;;;;4.82;2.58;;;;;;;-140.72;100.00;53243.19;6272352;22;20069;-67
2023/01/16 01:18:57;;;;;;;7.85;2.67;;;;;;;-140.72;100.00;53231.00;6273535;22;20004;-67
2023/01/16 01:21:22;;;;;;;5.82;3.10;;;;;;;-140.72;100.00;53206.66;6272253;22;19999;-67
2023/01/16 01:23:51;;;;;;;10.82;3.00;;;;;;;-140.72;100.00;53271.59;6274209;22;20007;-67
2023/01/16 01:26:17;;;;;;;4.43;2.78;;;;;;;-140.72;100.00;53241.16;6273939;22;20422;-67
2023/01/16 01:28:43;;;;;;;5.50;3.22;;;;;;;-140.72;100.00;53198.53;6274527;22;20086;-67
2023/01/16 01:31:11;;;;;;;5.00;2.83;;;;;;;-140.72;100.00;53251.31;6274120;22;20117;-67
2023/01/16 01:33:37;;;;;;;5.07;3.63;;;;;;;-140.72;100.00;53231.00;6274195;22;20038;-67
2023/01/16 01:36:03;;;;;;;9.93;3.90;;;;;;;-140.72;100.00;53226.94;6273948;22;19999;-67
2023/01/16 01:38:29;;;;;;;7.47;3.30;;;;;;;-140.72;100.00;53241.16;6274244;22;20007;-67
2023/01/16 01:40:54;;;;;;;5.60;3.30;;;;;;;-140.72;100.00;53237.09;6274208;22;20365;-68
2023/01/16 01:43:20;;;;;;;13.43;3.20;;;;;;;-140.72;100.00;53212.75;6274006;22;20046;-67
2023/01/16 01:45:53;;;;;;;4.15;3.55;;;;;;;-140.72;100.00;53241.16;6274231;22;20004;-67
2023/01/16 01:48:39;;;;;;;4.72;2.70;;;;;;;-140.72;100.00;53285.81;6273773;22;20007;-67
2023/01/16 01:51:09;;;;;;;8.65;2.13;;;;;;;-140.72;100.00;53281.75;6273642;22;20031;-67
2023/01/16 01:54:02;;;;;;;6.45;2.15;;;;;;;-140.72;100.00;53255.34;6274219;22;20003;-67
2023/01/16 01:56:36;;;;;;;5.05;2.50;;;;;;;-140.72;100.00;53235.06;6273978;22;20083;-67
2023/01/16 01:59:07;;;;;;;11.63;3.22;;;;;;;-140.72;100.00;53259.41;6273959;22;20330;-69
2023/01/16 02:01:33;;;;;;;6.57;2.28;;;;;;;-140.72;100.00;53243.19;6272331;22;20030;-67
2023/01/16 02:04:07;;;;;;;2.47;1.58;;;;;;;-140.72;100.00;53259.41;6272945;22;19995;-68
2023/01/16 02:06:40;;;;;;;9.32;1.83;;;;;;;-140.72;100.00;53275.66;6273781;22;20054;-67
2023/01/16 02:09:06;;;;;;;3.80;1.70;;;;;;;-140.72;100.00;53247.25;6273714;22;20000;-67
2023/01/16 02:11:43;;;;;;;2.13;1.55;;;;;;;-140.72;100.00;53261.44;6272088;22;20364;-66
2023/01/16 02:14:13;;;;;;;3.42;1.73;;;;;;;-140.72;100.00;53233.03;6273855;22;20008;-67
2023/01/16 02:19:41;;;;;;;2.83;1.90;;;;;;;-140.72;100.00;53228.97;6272472;22;20313;-67
2023/01/16 02:22:31;;;;;;;4.05;1.25;;;;;;;-140.72;100.00;53259.41;6272958;22;20347;-67
2023/01/16 02:25:18;;;;;;;3.20;2.00;;;;;;;-140.72;100.00;53245.22;6271831;22;20069;-67
2023/01/16 02:28:11;;;;;;;3.55;1.67;;;;;;;-140.72;100.00;53275.66;6272263;22;20431;-67
2023/01/16 02:31:08;;;;;;;10.73;2.25;;;;;;;-140.72;100.00;53239.13;6273551;22;20211;-67
2023/01/16 02:33:57;;;;;;;5.32;2.25;;;;;;;-140.72;100.00;53275.66;6270718;22;20137;-67
2023/01/16 02:36:47;;;;;;;2.67;1.67;;;;;;;-140.72;100.00;53269.56;6274346;22;20053;-67
2023/01/16 02:39:28;;;;;;;;;;;;;;;-140.72;100.00;53302.03;6273012;22;20326;-68
2023/01/16 02:42:01;;;;;;;4.53;2.47;;;;;;;-140.72;100.00;53228.97;6273294;22;20314;-67
2023/01/16 02:44:36;;;;;;;1.73;1.33;;;;;;;-140.72;100.00;53275.66;6272771;22;20011;-67
2023/01/16 02:47:17;;;;;;;3.55;2.05;;;;;;;-140.72;100.00;53231.00;6272194;22;20429;-67
2023/01/16 02:49:49;;;;;;;4.72;2.10;;;;;;;-140.72;100.00;53243.19;6270636;22;20045;-67
2023/01/16 02:52:35;;;;;;;10.27;2.05;;;;;;;-140.72;100.00;53210.72;6274140;22;20000;-67
2023/01/16 02:55:08;;;;;;;4.57;2.17;;;;;;;-140.72;100.00;53257.38;6272513;22;19995;-68
2023/01/16 02:57:42;;;;;;;3.22;2.20;;;;;;;-140.72;100.00;53261.44;6273073;22;20420;-67
2023/01/16 03:00:12;;;;;;;3.38;2.00;;;;;;;-140.72;100.00;53235.06;6272578;22;20009;-67
2023/01/16 03:02:38;;;;;;;2.63;1.55;;;;;;;-140.72;100.00;53287.84;6273454;22;20026;-67
2023/01/16 03:05:04;;;;;;;3.25;2.33;;;;;;;-140.72;100.00;53283.78;6272309;22;20469;-67
2023/01/16 03:08:06;;;;;;;4.40;1.58;;;;;;;-140.72;100.00;53247.25;6272505;22;19999;-67
2023/01/16 03:10:50;;;;;;;2.95;2.20;;;;;;;-140.72;100.00;53239.13;6273159;22;20011;-67
2023/01/16 03:13:42;;;;;;;6.88;2.13;;;;;;;-140.72;100.00;53259.41;6274210;22;20322;-67
2023/01/16 03:16:41;;;;;;;3.60;2.13;;;;;;;-140.72;100.00;53239.13;6272412;22;20003;-67
2023/01/16 03:19:23;;;;;;;2.80;1.90;;;;;;;-140.72;100.00;53231.00;6273165;22;20083;-67
2023/01/16 03:22:12;;;;;;;2.22;1.52;;;;;;;-140.72;100.00;53237.09;6272090;22;20594;-67
2023/01/16 03:24:59;;;;;;;11.27;1.83;;;;;;;-140.72;100.00;53267.53;6272329;22;20015;-67
2023/01/16 03:27:50;;;;;;;5.32;1.95;;;;;;;-140.72;100.00;53261.44;6271815;22;20000;-68
2023/01/16 03:30:42;;;;;;;9.52;2.00;;;;;;;-140.72;100.00;53218.81;6270881;22;20000;-67
2023/01/16 03:33:42;;;;;;;2.17;1.73;;;;;;;-140.72;100.00;53251.31;6272646;22;20386;-67
2023/01/16 03:36:13;;;;;;;3.95;0.88;;;;;;;-140.72;100.00;53247.25;6252635;22;20019;-67
2023/01/16 03:38:42;;;;;;;3.40;2.03;;;;;;;-140.72;100.00;53233.03;6271232;22;20004;-67
2023/01/16 03:41:12;;;;;;;2.60;0.75;;;;;;;-140.72;100.00;53216.78;6271913;22;20015;-67
2023/01/16 03:43:38;;;;;;;5.07;1.33;;;;;;;-140.72;100.00;53222.88;6271131;22;20030;-67
2023/01/16 03:46:12;;;;;;;5.72;1.40;;;;;;;-140.72;100.00;53261.44;6272772;22;20022;-67
2023/01/16 03:48:53;;;;;;;3.72;0.77;;;;;;;-140.72;100.00;53233.03;6272320;22;20057;-67
2023/01/16 03:51:23;;;;;;;2.72;0.77;;;;;;;-140.72;100.00;53247.25;6271925;22;19996;-67
2023/01/16 03:54:02;;;;;;;8.13;1.30;;;;;;;-140.72;100.00;53204.63;6271631;22;20469;-67
2023/01/16 03:56:36;;;;;;;3.05;1.70;;;;;;;-140.72;100.00;53275.66;6270877;22;20291;-68
2023/01/16 03:59:03;;;;;;;2.80;0.60;;;;;;;-140.72;100.00;53275.66;6271918;22;20356;-67
2023/01/16 04:02:07;;;;;;;3.83;0.57;;;;;;;-140.72;100.00;53271.59;6272887;22;20000;-68
2023/01/16 04:05:11;;;;;;;5.43;0.90;;;;;;;-140.72;100.00;53267.53;6268113;22;20007;-67
2023/01/16 04:07:45;;;;;;;2.42;1.13;;;;;;;-140.72;100.00;53267.53;6272917;22;20422;-68
2023/01/16 04:10:34;;;;;;;1.23;0.68;;;;;;;-140.72;100.00;53281.75;6273113;22;19996;-68
2023/01/16 04:13:05;;;;;;;0.98;0.60;;;;;;;-140.72;100.00;53257.38;6273201;22;20061;-68
2023/01/16 04:15:37;;;;;;;3.83;0.77;;;;;;;-140.72;100.00;53267.53;6272599;22;20082;-68
2023/01/16 04:18:02;;;;;;;1.40;0.70;;;;;;;-140.72;100.00;53273.63;6272078;22;19999;-68
2023/01/16 04:20:29;;;;;;;1.02;0.60;;;;;;;-140.72;100.00;53218.81;6273177;22;20483;-68
2023/01/16 04:22:55;;;;;;;0.82;0.47;;;;;;;-140.72;100.00;53228.97;6273507;22;20003;-69
2023/01/16 04:25:21;;;;;;;2.17;0.60;;;;;;;-140.72;100.00;53255.34;6272888;22;20022;-68
2023/01/16 04:27:46;;;;;;;4.50;0.70;;;;;;;-140.72;100.00;53243.19;6273435;22;19999;-68
2023/01/16 04:30:13;;;;;;;2.60;0.85;;;;;;;-140.72;100.00;53271.59;6274672;22;20003;-68
2023/01/16 04:32:38;;;;;;;1.55;0.73;;;;;;;-140.72;100.00;53271.59;6271655;22;20020;-69
2023/01/16 04:35:04;;;;;;;6.70;0.57;;;;;;;-140.72;100.00;53249.28;6274751;22;20469;-68
2023/01/16 04:37:30;;;;;;;2.88;1.40;;;;;;;-140.72;100.00;53261.44;6274482;22;20046;-68
2023/01/16 04:39:58;;;;;;;1.40;0.60;;;;;;;-140.72;100.00;53281.75;6274284;22;20378;-69
2023/01/16 04:42:24;;;;;;;0.40;0.30;;;;;;;-140.72;100.00;53279.72;6274621;22;20000;-68
2023/01/16 04:44:49;;;;;;;2.55;0.60;;;;;;;-140.72;100.00;53231.00;6274931;22;20400;-68
2023/01/16 04:47:16;;;;;;;4.53;1.05;;;;;;;-140.72;100.00;53243.19;6273601;22;20042;-69
2023/01/16 04:49:41;;;;;;;0.80;0.55;;;;;;;-140.72;100.00;53251.31;6274625;22;20008;-69
2023/01/16 04:52:07;;;;;;;2.40;1.08;;;;;;;-140.72;100.00;53271.59;6274727;22;20453;-68
2023/01/16 04:54:32;;;;;;;0.93;0.77;;;;;;;-140.72;100.00;53231.00;6272220;22;20049;-69
2023/01/16 04:56:58;;;;;;;2.28;0.60;;;;;;;-140.72;100.00;53247.25;6274977;22;20000;-69
2023/01/16 04:59:26;;;;;;;2.33;0.80;;;;;;;-140.72;100.00;53245.22;6274938;22;19996;-69
2023/01/16 05:01:52;;;;;;;2.45;0.60;;;;;;;-140.72;100.00;53257.38;6272651;22;19999;-69
2023/01/16 05:04:18;;;;;;;1.92;0.85;;;;;;;-140.72;100.00;53251.31;6274603;22;19995;-69
2023/01/16 05:06:43;;;;;;;1.60;0.82;;;;;;;-140.72;100.00;53214.78;6273160;22;20432;-68
2023/01/16 05:09:08;;;;;;;2.10;0.88;;;;;;;-140.72;100.00;53257.38;6274656;22;20445;-69
2023/01/16 05:11:34;;;;;;;1.95;0.57;;;;;;;-140.72;100.00;53279.72;6273539;22;20424;-68
2023/01/16 05:14:00;;;;;;;2.75;0.75;;;;;;;-140.72;100.00;53263.47;6272683;22;20004;-68
2023/01/16 05:16:27;;;;;;;1.80;0.60;;;;;;;-140.72;100.00;53243.19;6273187;22;20006;-68
2023/01/16 05:18:52;;;;;;;3.63;1.25;;;;;;;-140.72;100.00;53287.84;6274296;22;20003;-69
2023/01/16 05:21:17;;;;;;;2.70;0.75;;;;;;;-140.72;100.00;53255.34;6273731;22;19996;-69
2023/01/16 05:23:43;;;;;;;6.10;0.68;;;;;;;-140.72;100.00;53253.31;6273899;22;20305;-68
2023/01/16 05:26:09;;;;;;;0.68;0.68;;;;;;;-140.72;100.00;53210.72;6273843;22;20313;-68
2023/01/16 05:28:35;;;;;;;5.30;1.27;;;;;;;-140.72;100.00;53271.59;6273346;22;19999;-68
2023/01/16 05:31:01;;;;;;;5.40;1.02;;;;;;;-140.72;100.00;53281.75;6272760;22;20000;-69
2023/01/16 05:33:28;;;;;;;9.52;1.73;;;;;;;-140.72;100.00;53308.13;6274185;22;20061;-68
2023/01/16 05:35:55;;;;;;;2.95;0.60;;;;;;;-140.72;100.00;53261.44;6272906;22;20314;-68
2023/01/16 05:38:21;;;;;;;3.38;0.90;;;;;;;-140.72;100.00;53249.28;6274040;22;20099;-68
2023/01/16 05:40:47;;;;;;;1.33;0.73;;;;;;;-140.72;100.00;53239.13;6273450;22;20462;-68
2023/01/16 05:43:13;;;;;;;6.40;1.15;;;;;;;-140.72;100.00;53237.09;6272451;22;20003;-67
2023/01/16 05:45:38;;;;;;;2.35;0.77;;;;;;;-140.72;100.00;53231.00;6273614;22;20064;-67
2023/01/16 05:48:04;;;;;;;1.50;1.17;;;;;;;-140.72;100.00;53245.22;6274265;22;20000;-67
2023/01/16 05:50:29;;;;;;;3.33;1.42;;;;;;;-140.72;100.00;53243.19;6272581;22;20421;-68
2023/01/16 05:52:55;;;;;;;4.78;1.23;;;;;;;-140.72;100.00;53222.88;6273683;22;19995;-67
2023/01/16 05:55:20;;;;;;;0.88;0.55;;;;;;;-140.72;100.00;53218.81;6273598;22;20003;-67
2023/01/16 05:57:46;;;;;;;1.33;0.70;;;;;;;-140.72;100.00;53228.97;6273188;22;20062;-67
2023/01/16 06:00:12;;;;;;;5.15;1.63;;;;;;;-140.72;100.00;53261.44;6273757;22;19999;-67
2023/01/16 06:02:37;;;;;;;4.15;1.00;;;;;;;-140.72;100.00;53226.94;6273682;22;20047;-67
2023/01/16 06:05:03;;;;;;;0.95;0.45;;;;;;;-140.72;100.00;53231.00;6272564;22;19995;-67
2023/01/16 06:07:28;;;;;;;3.58;0.90;;;;;;;-140.72;100.00;53218.81;6273313;22;20041;-67
2023/01/16 06:09:54;;;;;;;6.95;1.02;;;;;;;-140.72;100.00;53245.22;6273422;22;20052;-67
2023/01/16 06:12:20;;;;;;;4.32;1.23;;;;;;;-140.72;100.00;53243.19;6272200;22;20057;-67
2023/01/16 06:14:46;;;;;;;3.50;0.70;;;;;;;-140.72;100.00;53259.41;6273275;22;20196;-67
2023/01/16 06:17:14;;;;;;;2.47;0.82;;;;;;;-140.72;100.00;53231.00;6272620;22;20365;-67
2023/01/16 06:19:46;;;;;;;6.63;0.77;;;;;;;-140.72;100.00;53226.94;6272714;22;20018;-66
2023/01/16 06:22:15;;;;;;;6.55;1.08;;;;;;;-140.72;100.00;53265.50;6273230;22;20061;-67
2023/01/16 06:24:41;;;;;;;3.03;0.90;;;;;;;-140.72;100.00;53245.22;6272308;22;20428;-66
2023/01/16 06:27:06;;;;;;;1.08;0.90;;;;;;;-140.72;100.00;53226.94;6273216;22;20016;-66
2023/01/16 06:29:32;;;;;;;0.85;0.45;;;;;;;-140.72;100.00;53200.56;6273562;22;20066;-66
2023/01/16 06:31:57;;;;;;;0.93;0.52;;;;;;;-140.72;100.00;53192.44;6272392;22;19996;-66
2023/01/16 06:34:23;;;;;;;8.40;1.33;;;;;;;-140.72;100.00;53269.56;6273096;22;20037;-67
2023/01/16 06:36:49;;;;;;;1.38;1.17;;;;;;;-140.72;100.00;53226.94;6273765;22;20310;-66
2023/01/16 06:39:15;;;;;;;5.18;0.50;;;;;;;-140.72;100.00;53174.19;6270122;22;20004;-65
2023/01/16 06:41:41;;;;;;;4.30;0.68;;;;;;;-140.72;100.00;53243.19;6273794;22;20062;-67
2023/01/16 06:44:06;;;;;;;4.47;0.82;;;;;;;-140.72;100.00;53216.78;6273497;22;20003;-65
2023/01/16 06:46:32;;;;;;;1.52;0.70;;;;;;;-140.72;100.00;53218.81;6271940;22;19996;-67
2023/01/16 06:48:57;;;;;;;1.20;0.55;;;;;;;-140.72;100.00;53228.97;6271619;22;20000;-65
2023/01/16 06:51:22;;;;;;;0.68;0.50;;;;;;;-140.72;100.00;53255.34;6272194;22;20008;-68
2023/01/16 06:53:48;;;;;;;2.35;0.85;;;;;;;-140.72;100.00;53247.25;6272186;22;20418;-67
2023/01/16 06:56:13;;;;;;;1.10;0.70;;;;;;;-140.72;100.00;53202.59;6273272;22;20011;-67
2023/01/16 06:58:38;;;;;;;0.70;0.68;;;;;;;-140.72;100.00;53263.47;6272853;22;20060;-66
2023/01/16 07:01:04;;;;;;;4.38;0.85;;;;;;;-140.72;100.00;53271.59;6272853;22;20531;-66
2023/01/16 07:03:30;;;;;;;6.15;0.82;;;;;;;-140.72;100.00;53251.31;6272556;22;20000;-66
2023/01/16 07:05:55;;;;;;;5.60;0.90;;;;;;;-140.72;100.00;53259.41;6273385;22;19999;-68
2023/01/16 07:08:21;;;;;;;1.50;0.60;;;;;;;-140.72;100.00;53226.94;6270612;22;20003;-66
2023/01/16 07:10:46;;;;;;;4.00;0.88;;;;;;;-140.72;100.00;53226.94;6272403;22;20003;-67
2023/01/16 07:13:11;;;;;;;1.27;0.77;;;;;;;-140.72;100.00;53235.06;6272429;22;20000;-66
2023/01/16 07:24:00;;;;;;;3.80;0.85;;;;;;;-140.72;100.00;53263.47;6273624;22;20058;-66
2023/01/16 07:26:27;;;;;;;1.10;0.68;;;;;;;-140.72;100.00;53239.13;6272529;22;20007;-67
2023/01/16 07:28:54;;;;;;;3.33;0.70;;;;;;;-140.72;100.00;53226.94;6272715;22;20023;-66
2023/01/16 07:31:20;;;;;;;2.60;0.60;;;;;;;-140.72;100.00;53218.81;6273399;22;19999;-67
2023/01/16 07:33:49;;;;;;;1.85;0.65;;;;;;;-140.72;100.00;53224.91;6273251;22;20008;-67
2023/01/16 07:36:14;;;;;;;1.75;0.50;;;;;;;-140.72;100.00;53275.66;6272153;22;20398;-67
2023/01/16 07:38:42;;;;;;;0.75;0.52;;;;;;;-140.72;100.00;53210.72;6273267;22;19999;-66
2023/01/16 07:41:08;;;;;;;3.55;1.20;;;;;;;-140.72;100.00;53188.38;6272445;22;20019;-67
2023/01/16 07:43:34;;;;;;;1.52;0.70;;;;;;;-140.72;100.00;53226.94;6271644;22;20353;-67
2023/01/16 07:45:59;;;;;;;1.20;0.60;;;;;;;-140.72;100.00;53253.31;6272533;22;19996;-67
2023/01/16 07:48:25;;;;;;;3.22;0.90;;;;;;;-140.72;100.00;53267.53;6272222;22;20095;-69
2023/01/16 07:50:55;;;;;;;2.47;1.15;;;;;;;-140.72;100.00;53216.78;6272902;22;20398;-68
2023/01/16 07:53:23;;;;;;;1.50;0.65;;;;;;;-140.72;100.00;53214.78;6273574;22;20011;-68
2023/01/16 07:55:54;;;;;;;4.07;0.82;;;;;;;-140.72;100.00;53235.06;6272404;22;20008;-68
2023/01/16 07:58:20;;;;;;;1.98;0.90;;;;;;;-140.72;100.00;53214.78;6273385;22;20351;-67
2023/01/16 08:00:47;;;;;;;3.35;1.27;;;;;;;-140.72;100.00;53300.00;6270591;22;20158;-68
2023/01/16 08:03:16;;;;;;;2.35;1.10;;;;;;;-140.72;100.00;53259.41;6272612;22;20002;-67
2023/01/16 08:05:44;;;;;;;3.57;0.53;;;;;;;-140.72;100.00;53257.38;6273159;22;19996;-68
2023/01/16 08:08:13;;;;;;;2.07;0.80;;;;;;;-140.72;100.00;53302.03;6274227;22;19995;-69
2023/01/16 08:10:39;;;;;;;3.40;0.60;;;;;;;-140.72;100.00;53226.94;6273220;22;20075;-68
2023/01/16 08:13:05;;;;;;;1.10;0.68;;;;;;;-140.72;100.00;53218.81;6274096;22;20071;-67
2023/01/16 08:15:31;;;;;;;7.22;0.77;;;;;;;-140.72;100.00;53226.94;6273102;22;20361;-68
2023/01/16 08:17:56;;;;;;;1.55;0.80;;;;;;;-140.72;100.00;53235.06;6272749;22;20047;-69
2023/01/16 08:20:22;;;;;;;6.18;0.88;;;;;;;-140.72;100.00;53186.34;6268047;22;19999;-69
2023/01/16 08:22:50;;;;;;;1.08;0.80;;;;;;;-140.72;100.00;53212.75;6273011;22;19999;-67
2023/01/16 08:25:17;;;;;;;1.98;0.77;;;;;;;-140.72;100.00;53216.78;6270739;22;20409;-67
2023/01/16 08:27:42;;;;;;;1.15;0.50;;;;;;;-140.72;100.00;53198.53;6271994;22;20000;-67
2023/01/16 08:30:09;;;;;;;0.55;0.40;;;;;;;-140.72;100.00;53247.25;6271485;22;20373;-67
2023/01/16 08:32:35;;;;;;;3.45;1.00;;;;;;;-140.72;100.00;53245.22;6270554;22;20121;-67
2023/01/16 08:35:03;;;;;;;2.47;0.60;;;;;;;-140.72;100.00;53241.16;6272389;22;20064;-67
2023/01/16 08:37:31;;;;;;;2.58;0.60;;;;;;;-140.72;100.00;53259.41;6271574;22;20007;-69
2023/01/16 08:39:56;;;;;;;2.65;0.63;;;;;;;-140.72;100.00;53289.88;6272412;22;20030;-68
2023/01/16 08:53:21;;;;;;;2.35;0.65;;;;;;;-140.72;100.00;53218.81;6272316;22;20405;-68
2023/01/16 08:55:46;;;;;;;2.22;0.90;;;;;;;-140.72;100.00;53210.72;6272516;22;20004;-69
2023/01/16 08:58:12;;;;;;;1.52;0.45;;;;;;;-140.72;100.00;53214.78;6270616;22;20003;-68
2023/01/16 09:00:37;;;;;;;4.13;1.33;;;;;;;-140.72;100.00;53226.94;6270986;22;20006;-68
2023/01/16 09:03:03;;;;;;;1.23;0.73;;;;;;;-140.72;100.00;53218.81;6270518;22;20402;-67
2023/01/16 09:05:28;;;;;;;1.50;0.70;;;;;;;-140.72;100.00;53239.13;6270944;22;20003;-67
2023/01/16 09:07:54;;;;;;;2.22;0.80;;;;;;;-140.72;100.00;53226.94;6271814;22;20071;-68
2023/01/16 09:10:20;;;;;;;0.70;0.50;;;;;;;-140.72;100.00;53243.19;6271931;22;20010;-67
2023/01/16 09:15:32;;;;;;;2.47;0.60;;;;;;;-140.72;100.00;53198.53;6271676;22;20346;-68
2023/01/16 09:17:57;;;;;;;2.20;1.00;;;;;;;-140.72;100.00;53214.78;6270985;22;20003;-68
2023/01/16 09:20:23;;;;;;;4.28;0.90;;;;;;;-140.72;100.00;53186.34;6270947;22;20075;-67
2023/01/16 09:22:55;;;;;;;1.00;0.52;;;;;;;-140.72;100.00;53206.66;6271614;22;20003;-68
2023/01/16 09:25:21;;;;;;;1.17;0.80;;;;;;;-140.72;100.00;53202.59;6271890;22;20438;-68
2023/01/16 09:27:46;;;;;;;0.73;0.55;;;;;;;-140.72;100.00;53212.75;6269679;22;20000;-68
2023/01/16 09:30:12;;;;;;;4.32;1.02;;;;;;;-140.72;100.00;53226.94;6271908;22;20109;-68
2023/01/16 09:32:37;;;;;;;1.42;0.77;;;;;;;-140.72;100.00;53188.38;6271675;22;20011;-68
2023/01/16 09:35:03;;;;;;;4.68;0.95;;;;;;;-140.72;100.00;53224.91;6270113;22;19996;-68
2023/01/16 09:37:28;;;;;;;1.38;0.73;;;;;;;-140.72;100.00;53218.81;6270341;22;19999;-68
2023/01/16 09:39:54;;;;;;;2.25;0.95;;;;;;;-140.72;100.00;53216.78;6271930;22;20007;-68
2023/01/16 09:45:19;;;;;;;1.38;0.43;;;;;;;-140.72;100.00;53222.88;6271654;22;20378;-68
2023/01/16 09:47:52;;;;;;;2.17;0.80;;;;;;;-140.72;100.00;53228.97;6271962;22;20057;-68
2023/01/16 09:50:33;;;;;;;1.30;0.85;;;;;;;-140.72;100.00;53218.81;6270723;22;20076;-69
2023/01/16 09:58:38;;;;;;;2.30;0.70;;;;;;;-140.72;100.00;53263.47;6271053;22;20087;-68
2023/01/16 10:01:08;;;;;;;1.05;0.52;;;;;;;-140.72;100.00;53275.66;6271235;22;20003;-68
2023/01/16 10:03:41;;;;;;;2.05;1.17;;;;;;;-140.72;100.00;53226.94;6270197;22;20014;-67
2023/01/16 10:06:36;;;;;;;1.80;0.90;;;;;;;-140.72;100.00;53214.78;6271707;22;20031;-68
2023/01/16 10:09:18;;;;;;;1.13;0.73;;;;;;;-140.72;100.00;53210.72;6270947;22;20003;-68
2023/01/16 10:11:59;;;;;;;3.30;0.80;;;;;;;-140.72;100.00;53231.00;6271496;22;20031;-68
2023/01/16 10:14:37;;;;;;;2.95;0.88;;;;;;;-140.72;100.00;53220.84;6244580;22;20007;-69
2023/01/16 10:17:23;;;;;;;2.42;1.13;;;;;;;-140.72;100.00;53231.00;6271190;22;20027;-68
2023/01/16 10:20:23;;;;;;;2.15;1.08;;;;;;;-140.72;100.00;53231.00;6269574;22;20131;-68
2023/01/16 10:23:10;;;;;;;0.77;0.45;;;;;;;-140.72;100.00;53212.75;6271834;22;20352;-69
2023/01/16 10:25:49;;;;;;;0.80;0.60;;;;;;;-140.72;100.00;53192.44;6270709;22;19999;-67
2023/01/16 10:28:42;;;;;;;2.10;0.60;;;;;;;-140.72;100.00;53178.22;6271790;22;20050;-68
2023/01/16 10:31:16;;;;;;;1.50;0.90;;;;;;;-140.72;100.00;53198.53;6270318;22;20085;-68
2023/01/16 10:34:10;;;;;;;3.72;1.05;;;;;;;-140.72;100.00;53239.13;6270682;22;20061;-68
2023/01/16 10:36:46;;;;;;;1.60;0.75;;;;;;;-140.72;100.00;53190.41;6271806;22;20003;-67
2023/01/16 10:39:15;;;;;;;2.65;0.60;;;;;;;-140.72;100.00;53245.22;6270298;22;20018;-68
2023/01/16 10:50:26;;;;;;;1.48;0.90;;;;;;;-140.72;100.00;53204.63;6271242;22;20010;-68
2023/01/16 10:52:52;;;;;;;1.40;0.68;;;;;;;-140.72;100.00;53184.31;6270505;22;20003;-68
2023/01/16 10:55:18;;;;;;;1.58;0.88;;;;;;;-140.72;100.00;53200.56;6271441;22;20060;-68
2023/01/16 10:57:55;;;;;;;1.58;1.05;;;;;;;-140.72;100.00;53196.50;6270498;22;20027;-69
2023/01/16 11:00:27;;;;;;;2.38;0.90;;;;;;;-140.72;100.00;53206.66;6270052;22;20003;-68
2023/01/16 11:02:58;;;;;;;1.98;1.10;;;;;;;-140.72;100.00;53196.50;6271057;22;20034;-69
2023/01/16 11:05:35;;;;;;;1.13;0.68;;;;;;;-140.72;100.00;53162.00;6268930;22;20430;-68
2023/01/16 11:08:18;;;;;;;4.47;1.05;;;;;;;-140.72;100.00;53206.66;6271236;22;20406;-70
2023/01/16 11:10:46;;;;;;;0.50;0.43;;;;;;;-140.72;100.00;53218.81;6270510;22;20098;-67
2023/01/16 11:18:58;;;;;;;3.38;0.80;;;;;;;-140.72;100.00;53218.81;6270789;22;20013;-68
2023/01/16 11:21:33;;;;;;;0.77;0.50;;;;;;;-140.72;100.00;53194.47;6271692;22;20450;-68
2023/01/16 11:24:15;;;;;;;0.98;0.50;;;;;;;-140.72;100.00;53247.25;6271510;22;20207;-69
2023/01/16 11:26:45;;;;;;;0.88;0.50;;;;;;;-140.72;100.00;53212.75;6270241;22;20057;-68
2023/01/16 11:29:28;;;;;;;0.77;0.50;;;;;;;-140.72;100.00;53170.13;6270858;22;20057;-69
2023/01/16 11:32:00;;;;;;;0.30;0.20;;;;;;;-140.72;100.00;53212.75;6270528;22;20026;-69
2023/01/16 11:34:28;;;;;;;1.02;0.65;;;;;;;-140.72;100.00;53139.69;6269354;22;20014;-68
2023/01/16 11:37:00;;;;;;;0.77;0.38;;;;;;;-140.72;100.00;53180.25;6271193;22;20000;-68
2023/01/16 11:39:29;;;;;;;1.02;0.60;;;;;;;-140.72;100.00;53190.41;6271488;22;20007;-69
2023/01/16 11:41:57;;;;;;;;;;;;;;;-140.72;100.00;53119.38;6271500;22;20027;-68
2023/01/16 11:47:22;;;;;;;0.63;0.40;;;;;;;-140.72;100.00;53180.25;6270759;22;20015;-70
2023/01/16 11:49:50;;;;;;;1.85;0.45;;;;;;;-140.72;100.00;53190.41;6270787;22;20045;-68
2023/01/16 11:52:27;;;;;;;1.77;0.38;;;;;;;-140.72;100.00;53170.13;6271603;22;20441;-68
2023/01/16 11:55:04;;;;;;;0.80;0.50;;;;;;;-140.72;100.00;53174.19;6270693;22;20008;-68
2023/01/16 11:57:52;;;;;;;0.50;0.30;;;;;;;-140.72;100.00;53162.00;6269823;22;20000;-68
2023/01/16 12:00:23;;;;;;;0.90;0.45;;;;;;;-140.72;100.00;53184.31;6271440;22;20496;-67
2023/01/16 12:03:23;;;;;;;0.50;0.20;;;;;;;-140.72;100.00;53170.13;6270892;22;20014;-68
2023/01/16 12:06:11;;;;;;;0.30;0.30;;;;;;;-140.72;100.00;53174.19;6269602;22;20014;-67
2023/01/16 12:08:42;;;;;;;0.40;0.25;;;;;;;-140.72;100.00;53133.59;6270101;22;20086;-67
2023/01/16 12:11:53;;;;;;;1.67;0.45;;;;;;;-140.72;100.00;53147.78;6270556;22;20076;-69
2023/01/16 12:14:39;;;;;;;1.08;0.75;;;;;;;-140.72;100.00;53186.34;6220035;22;20065;-68
2023/01/16 12:17:37;;;;;;;1.17;0.40;;;;;;;-140.72;100.00;53186.34;6269443;22;20496;-70